createdAt,value
2018-10-11T00:00:29.328Z,19.73
2018-10-11T00:02:58.496Z,22.50
2018-10-11T00:05:27.826Z,20.00
2018-10-11T00:07:56.984Z,21.17
2018-10-11T00:10:26.796Z,18.77
2018-10-11T00:12:55.875Z,18.80
2018-10-11T00:15:26.012Z,22.10
2018-10-11T00:17:55.148Z,20.00
2018-10-11T00:20:24.273Z,20.70
2018-10-11T00:22:53.409Z,20.37
2018-10-11T00:25:22.609Z,21.70
2018-10-11T00:27:51.667Z,21.67
2018-10-11T00:30:20.860Z,20.67
2018-10-11T00:32:50.104Z,19.07
2018-10-11T00:35:19.303Z,20.40
2018-10-11T00:37:48.929Z,20.07
2018-10-11T00:40:18.013Z,16.70
2018-10-11T00:42:47.189Z,19.27
2018-10-11T00:45:16.363Z,19.23
2018-10-11T00:47:45.978Z,19.83
2018-10-11T00:50:15.166Z,17.10
2018-10-11T00:52:44.225Z,18.93
2018-10-11T00:55:13.462Z,20.33
2018-10-11T00:57:42.560Z,15.17
2018-10-11T01:00:11.788Z,19.40
2018-10-11T01:02:40.916Z,17.93
2018-10-11T01:05:10.042Z,18.30
2018-10-11T01:10:12.502Z,16.13
2018-10-11T01:12:41.659Z,16.63
2018-10-11T01:15:11.614Z,18.43
2018-10-11T01:17:41.225Z,14.23
2018-10-11T01:20:10.498Z,17.47
2018-10-11T01:22:39.625Z,16.00
2018-10-11T01:25:08.729Z,14.43
2018-10-11T01:27:37.925Z,17.70
2018-10-11T01:30:07.586Z,15.27
2018-10-11T01:32:37.529Z,18.00
2018-10-11T01:35:07.884Z,16.20
2018-10-11T01:37:38.332Z,15.10
2018-10-11T01:40:07.618Z,15.80
2018-10-11T01:42:36.881Z,19.03
2018-10-11T01:45:06.386Z,16.93
2018-10-11T01:47:36.158Z,18.40
2018-10-11T01:50:05.524Z,17.00
2018-10-11T01:52:35.420Z,16.47
2018-10-11T01:55:04.552Z,15.60
2018-10-11T01:57:33.748Z,16.70
2018-10-11T02:00:02.948Z,19.47
2018-10-11T02:02:32.167Z,18.33
2018-10-11T02:05:02.132Z,17.83
2018-10-11T02:07:31.252Z,16.57
2018-10-11T02:10:00.415Z,21.70
2018-10-11T02:12:29.649Z,19.07
2018-10-11T02:14:58.726Z,15.23
2018-10-11T02:17:28.057Z,16.30
2018-10-11T02:19:58.074Z,16.90
2018-10-11T02:22:27.266Z,17.87
2018-10-11T02:24:56.443Z,16.10
2018-10-11T02:27:25.542Z,17.40
2018-10-11T02:29:54.666Z,15.77
2018-10-11T02:32:23.863Z,17.93
2018-10-11T02:34:53.606Z,16.00
2018-10-11T02:37:22.717Z,16.13
2018-10-11T02:39:53.201Z,16.40
2018-10-11T02:42:22.393Z,17.87
2018-10-11T02:44:51.962Z,15.60
2018-10-11T02:47:21.103Z,17.30
2018-10-11T02:49:50.209Z,17.20
2018-10-11T02:52:19.349Z,13.30
2018-10-11T02:54:48.450Z,16.33
2018-10-11T02:57:28.654Z,16.37
2018-10-11T02:59:58.889Z,16.70
2018-10-11T03:02:29.011Z,18.97
2018-10-11T03:04:58.720Z,17.13
2018-10-11T03:07:28.914Z,16.47
2018-10-11T03:10:03.131Z,21.47
2018-10-11T03:12:32.357Z,18.27
2018-10-11T03:15:01.469Z,16.03
2018-10-11T03:17:30.648Z,18.70
2018-10-11T03:19:59.820Z,17.60
2018-10-11T03:22:28.931Z,18.67
2018-10-11T03:24:58.038Z,22.47
2018-10-11T03:27:27.238Z,18.77
2018-10-11T03:29:56.410Z,23.87
2018-10-11T03:32:25.544Z,17.27
2018-10-11T03:34:54.747Z,15.57
2018-10-11T03:37:23.994Z,19.00
2018-10-11T03:39:53.354Z,16.60
2018-10-11T03:42:22.577Z,18.53
2018-10-11T03:44:51.683Z,19.33
2018-10-11T03:47:20.816Z,21.23
2018-10-11T03:49:49.944Z,19.07
2018-10-11T03:52:19.036Z,15.83
2018-10-11T03:54:48.134Z,19.43
2018-10-11T03:57:17.301Z,16.80
2018-10-11T03:59:47.601Z,19.37
2018-10-11T04:02:17.672Z,16.03
2018-10-11T04:04:46.867Z,18.30
2018-10-11T04:07:16.810Z,15.87
2018-10-11T04:09:45.915Z,19.07
2018-10-11T04:12:14.981Z,20.20
2018-10-11T04:14:44.221Z,17.30
2018-10-11T04:17:14.838Z,17.13
2018-10-11T04:19:43.956Z,15.40
2018-10-11T04:22:13.103Z,15.90
2018-10-11T04:24:42.976Z,16.17
2018-10-11T04:27:12.323Z,14.43
2018-10-11T04:29:41.507Z,14.30
2018-10-11T04:32:10.605Z,16.10
2018-10-11T04:34:39.882Z,16.20
2018-10-11T04:37:09.378Z,14.30
2018-10-11T04:39:38.548Z,11.10
2018-10-11T04:42:08.464Z,14.23
2018-10-11T04:44:37.727Z,17.53
2018-10-11T04:47:07.640Z,14.20
2018-10-11T04:49:36.866Z,14.57
2018-10-11T04:52:06.112Z,11.83
2018-10-11T04:54:35.218Z,19.33
2018-10-11T04:57:04.380Z,14.70
2018-10-11T04:59:33.572Z,13.17
2018-10-11T05:02:02.763Z,11.60
2018-10-11T05:04:31.859Z,13.63
2018-10-11T05:07:01.025Z,13.03
2018-10-11T05:09:30.148Z,13.03
2018-10-11T05:11:59.386Z,11.10
2018-10-11T05:14:28.699Z,17.73
2018-10-11T05:16:57.980Z,14.97
2018-10-11T05:19:27.391Z,9.23
2018-10-11T05:21:56.612Z,12.03
2018-10-11T05:24:25.772Z,12.93
2018-10-11T05:26:54.961Z,10.00
2018-10-11T05:29:24.258Z,13.10
2018-10-11T05:31:53.541Z,11.93
2018-10-11T05:34:23.286Z,12.43
2018-10-11T05:36:52.476Z,13.50
2018-10-11T05:39:22.604Z,8.60
2018-10-11T05:41:52.464Z,11.17
2018-10-11T05:44:21.841Z,13.13
2018-10-11T05:46:51.094Z,12.30
2018-10-11T05:49:20.317Z,10.67
2018-10-11T05:51:49.624Z,9.33
2018-10-11T05:54:18.933Z,12.43
2018-10-11T05:56:48.492Z,12.30
2018-10-11T05:59:17.727Z,13.90
2018-10-11T06:01:46.928Z,11.77
2018-10-11T06:04:16.168Z,13.37
2018-10-11T06:06:48.468Z,13.27
2018-10-11T06:09:18.029Z,13.53
2018-10-11T06:11:48.391Z,10.23
2018-10-11T06:14:18.637Z,10.93
2018-10-11T06:16:47.807Z,13.90
2018-10-11T06:19:17.697Z,11.07
2018-10-11T06:21:46.918Z,9.67
2018-10-11T06:24:16.179Z,10.87
2018-10-11T06:26:45.345Z,12.17
2018-10-11T06:29:14.649Z,12.50
2018-10-11T06:31:44.856Z,15.17
2018-10-11T06:34:14.008Z,11.73
2018-10-11T06:36:45.902Z,12.33
2018-10-11T06:39:15.801Z,16.03
2018-10-11T06:41:44.897Z,10.70
2018-10-11T06:44:14.941Z,11.67
2018-10-11T06:46:44.203Z,10.23
2018-10-11T06:49:13.566Z,15.97
2018-10-11T06:51:42.906Z,9.97
2018-10-11T06:54:12.808Z,13.23
2018-10-11T06:56:43.492Z,11.87
2018-10-11T06:59:12.662Z,12.20
2018-10-11T07:01:42.128Z,10.00
2018-10-11T07:04:11.314Z,11.63
2018-10-11T07:06:41.003Z,8.67
2018-10-11T07:09:10.504Z,12.97
2018-10-11T07:11:40.457Z,8.37
2018-10-11T07:14:09.714Z,9.13
2018-10-11T07:16:38.894Z,11.37
2018-10-11T07:19:08.415Z,10.70
2018-10-11T07:21:37.673Z,16.37
2018-10-11T07:24:07.102Z,11.40
2018-10-11T07:26:36.391Z,12.00
2018-10-11T07:29:06.412Z,12.87
2018-10-11T07:31:36.561Z,18.03
2018-10-11T07:34:06.118Z,9.60
2018-10-11T07:36:35.647Z,13.00
2018-10-11T07:39:08.399Z,8.13
2018-10-11T07:41:37.949Z,15.33
2018-10-11T07:44:07.900Z,11.67
2018-10-11T07:46:38.002Z,11.07
2018-10-11T07:49:09.669Z,12.53
2018-10-11T07:51:39.507Z,9.53
2018-10-11T07:54:08.932Z,10.90
2018-10-11T07:56:38.465Z,8.73
2018-10-11T07:59:08.003Z,12.80
2018-10-11T08:01:37.708Z,16.40
2018-10-11T08:04:09.035Z,9.40
2018-10-11T08:06:38.849Z,11.80
2018-10-11T08:09:08.902Z,14.60
2018-10-11T08:11:38.621Z,12.37
2018-10-11T08:14:09.882Z,17.20
2018-10-11T08:16:39.287Z,13.23
2018-10-11T08:19:09.163Z,8.67
2018-10-11T08:21:43.023Z,8.47
2018-10-11T08:24:12.139Z,10.67
2018-10-11T08:26:42.220Z,13.60
2018-10-11T08:29:11.340Z,10.97
2018-10-11T08:31:40.710Z,8.50
2018-10-11T08:34:11.075Z,9.27
2018-10-11T08:36:40.461Z,8.73
2018-10-11T08:39:11.677Z,8.53
2018-10-11T08:41:41.260Z,7.63
2018-10-11T08:44:11.785Z,7.47
2018-10-11T08:46:41.521Z,10.50
2018-10-11T08:49:10.700Z,6.97
2018-10-11T08:51:40.639Z,8.70
2018-10-11T08:54:14.810Z,8.07
2018-10-11T08:56:43.942Z,8.03
2018-10-11T08:59:13.408Z,5.73
2018-10-11T09:01:42.654Z,5.47
2018-10-11T09:04:12.006Z,6.37
2018-10-11T09:06:41.242Z,4.33
2018-10-11T09:09:11.371Z,9.53
2018-10-11T09:11:40.574Z,3.00
2018-10-11T09:14:09.870Z,7.07
2018-10-11T09:16:39.413Z,4.37
2018-10-11T09:19:08.802Z,3.70
2018-10-11T09:21:38.147Z,6.67
2018-10-11T09:24:07.441Z,4.20
2018-10-11T09:26:36.760Z,5.53
2018-10-11T09:29:06.080Z,4.87
2018-10-11T09:31:35.359Z,7.27
2018-10-11T09:34:05.207Z,5.77
2018-10-11T09:36:35.418Z,5.50
2018-10-11T09:39:05.963Z,7.30
2018-10-11T09:41:35.980Z,6.23
2018-10-11T09:44:05.214Z,9.00
2018-10-11T09:46:34.471Z,10.30
2018-10-11T09:49:03.934Z,5.03
2018-10-11T09:51:38.480Z,8.37
2018-10-11T09:54:08.350Z,5.13
2018-10-11T09:57:43.608Z,5.23
2018-10-11T10:00:18.028Z,5.57
2018-10-11T10:02:49.717Z,7.10
2018-10-11T10:05:21.613Z,5.27
2018-10-11T10:07:51.590Z,7.37
2018-10-11T10:10:20.724Z,6.37
2018-10-11T10:12:50.025Z,5.40
2018-10-11T10:15:19.271Z,4.63
2018-10-11T10:17:48.542Z,4.30
2018-10-11T10:20:18.833Z,8.27
2018-10-11T10:22:48.012Z,4.67
2018-10-11T10:25:17.846Z,7.30
2018-10-11T10:27:47.203Z,5.37
2018-10-11T10:30:21.249Z,6.40
2018-10-11T10:32:50.317Z,4.60
2018-10-11T10:35:19.631Z,7.63
2018-10-11T10:37:48.714Z,11.00
2018-10-11T10:40:19.726Z,5.87
2018-10-11T10:42:48.856Z,10.33
2018-10-11T10:45:19.337Z,7.93
2018-10-11T10:47:48.536Z,8.57
2018-10-11T10:50:19.106Z,5.77
2018-10-11T10:52:48.965Z,9.73
2018-10-11T10:55:18.401Z,11.30
2018-10-11T10:57:47.497Z,7.33
2018-10-11T11:00:16.593Z,7.47
2018-10-11T11:02:48.174Z,10.83
2018-10-11T11:05:18.131Z,9.90
2018-10-11T11:07:47.378Z,9.80
2018-10-11T11:10:16.569Z,8.67
2018-10-11T11:12:45.717Z,4.67
2018-10-11T11:15:14.989Z,8.63
2018-10-11T11:17:44.310Z,4.60
2018-10-11T11:20:13.518Z,10.23
2018-10-11T11:22:43.488Z,8.93
2018-10-11T11:25:12.686Z,14.40
2018-10-11T11:27:42.840Z,9.13
2018-10-11T11:30:12.052Z,7.90
2018-10-11T11:32:41.278Z,10.10
2018-10-11T11:35:11.239Z,5.63
2018-10-11T11:37:47.690Z,5.50
2018-10-11T11:40:16.907Z,5.70
2018-10-11T11:42:46.157Z,8.60
2018-10-11T11:45:15.596Z,4.87
2018-10-11T11:47:47.148Z,4.93
2018-10-11T11:50:18.450Z,7.90
2018-10-11T11:52:47.805Z,4.77
2018-10-11T11:55:16.975Z,5.43
2018-10-11T11:57:48.697Z,4.23
2018-10-11T12:00:18.189Z,5.60
2018-10-11T12:02:48.420Z,4.67
2018-10-11T12:05:17.541Z,5.27
2018-10-11T12:07:48.110Z,7.87
2018-10-11T12:10:17.683Z,4.67
2018-10-11T12:12:57.363Z,5.30
2018-10-11T12:15:27.502Z,3.53
2018-10-11T12:17:57.981Z,7.80
2018-10-11T12:20:29.084Z,6.13
2018-10-11T12:23:02.972Z,3.97
2018-10-11T12:25:33.058Z,4.67
2018-10-11T12:28:02.400Z,8.03
2018-10-11T12:30:32.397Z,6.33
2018-10-11T12:33:01.816Z,5.37
2018-10-11T12:35:31.754Z,6.53
2018-10-11T12:38:00.851Z,9.93
2018-10-11T12:40:31.773Z,9.10
2018-10-11T12:43:00.983Z,10.00
2018-10-11T12:45:31.153Z,11.10
2018-10-11T12:48:24.667Z,10.27
2018-10-11T12:50:53.865Z,6.60
2018-10-11T12:53:23.833Z,7.37
2018-10-11T12:55:53.639Z,8.97
2018-10-11T12:58:22.812Z,5.73
2018-10-11T13:00:52.040Z,7.60
2018-10-11T13:03:22.157Z,6.90
2018-10-11T13:05:51.290Z,5.87
2018-10-11T13:10:46.689Z,3.90
2018-10-11T13:13:15.856Z,4.80
2018-10-11T13:15:45.065Z,4.83
2018-10-11T13:21:07.311Z,3.53
2018-10-11T13:23:36.405Z,2.63
2018-10-11T13:26:09.904Z,4.50
2018-10-11T13:28:39.646Z,4.83
2018-10-11T13:31:09.848Z,4.67
2018-10-11T13:33:39.738Z,2.60
2018-10-11T13:36:09.980Z,3.97
2018-10-11T13:38:39.551Z,1.60
2018-10-11T13:41:08.954Z,5.27
2018-10-11T13:43:39.435Z,2.13
2018-10-11T13:46:08.997Z,2.00
2018-10-11T13:48:39.147Z,1.10
2018-10-11T13:51:09.277Z,4.40
2018-10-11T13:53:38.887Z,3.67
2018-10-11T13:56:08.309Z,4.27
2018-10-11T13:58:38.408Z,1.50
2018-10-11T14:01:07.772Z,2.37
2018-10-11T14:03:38.577Z,0.83
2018-10-11T14:06:07.959Z,4.87
2018-10-11T14:08:37.603Z,3.67
2018-10-11T14:11:07.261Z,4.87
2018-10-11T14:13:37.297Z,0.90
2018-10-11T14:16:07.560Z,1.17
2018-10-11T14:18:37.909Z,3.70
2018-10-11T14:21:08.570Z,0.50
2018-10-11T14:23:38.299Z,1.93
2018-10-11T14:26:09.532Z,0.60
2018-10-11T14:28:39.691Z,4.70
2018-10-11T14:31:08.795Z,7.67
2018-10-11T14:33:38.648Z,1.80
2018-10-11T14:36:08.927Z,2.00
2018-10-11T14:38:38.108Z,1.37
2018-10-11T14:41:08.486Z,5.67
2018-10-11T14:43:38.638Z,1.70
2018-10-11T14:46:08.175Z,3.53
2018-10-11T14:48:38.164Z,2.57
2018-10-11T14:51:08.495Z,1.73
2018-10-11T14:53:40.986Z,1.40
2018-10-11T14:56:10.361Z,4.47
2018-10-11T14:58:40.673Z,1.30
2018-10-11T15:01:09.785Z,1.70
2018-10-11T15:03:39.714Z,1.07
2018-10-11T15:06:10.172Z,4.83
2018-10-11T15:08:39.470Z,2.77
2018-10-11T15:11:10.193Z,1.70
2018-10-11T15:13:39.676Z,0.77
2018-10-11T15:16:09.036Z,3.23
2018-10-11T15:18:38.648Z,0.53
2018-10-11T15:21:09.096Z,4.03
2018-10-11T15:23:42.285Z,1.70
2018-10-11T15:26:11.850Z,1.87
2018-10-11T15:28:40.807Z,5.63
2018-10-11T15:31:10.945Z,9.20
2018-10-11T15:33:41.745Z,3.40
2018-10-11T15:36:11.046Z,3.50
2018-10-11T15:38:41.615Z,4.23
2018-10-11T15:41:10.866Z,3.53
2018-10-11T15:43:40.939Z,2.30
2018-10-11T15:46:10.102Z,1.33
2018-10-11T15:48:39.320Z,3.23
2018-10-11T15:51:08.617Z,2.70
2018-10-11T15:53:37.766Z,4.03
2018-10-11T15:56:07.938Z,3.63
2018-10-11T15:58:37.757Z,3.83
2018-10-11T16:01:07.004Z,3.97
2018-10-11T16:03:36.161Z,3.63
2018-10-11T16:06:05.385Z,6.27
2018-10-11T16:08:35.888Z,2.37
2018-10-11T16:11:05.955Z,1.77
2018-10-11T16:13:35.132Z,2.33
2018-10-11T16:16:05.480Z,7.73
2018-10-11T16:18:34.629Z,1.13
2018-10-11T16:21:03.729Z,1.47
2018-10-11T16:23:32.842Z,0.80
2018-10-11T16:26:04.211Z,2.83
2018-10-11T16:28:33.374Z,3.80
2018-10-11T16:31:03.524Z,3.30
2018-10-11T16:33:33.521Z,4.70
2018-10-11T16:36:03.612Z,2.17
2018-10-11T16:38:32.722Z,6.73
2018-10-11T16:41:01.968Z,8.17
2018-10-11T16:43:31.029Z,5.75
2018-10-11T16:46:00.151Z,3.07
2018-10-11T16:48:29.281Z,4.47
2018-10-11T16:50:58.467Z,1.77
2018-10-11T16:53:27.621Z,5.53
2018-10-11T16:55:58.475Z,5.57
2018-10-11T17:04:12.215Z,7.47
2018-10-11T17:06:41.496Z,1.57
2018-10-11T17:09:11.828Z,8.87
2018-10-11T17:11:42.426Z,4.20
2018-10-11T17:14:11.580Z,5.50
2018-10-11T17:16:42.081Z,7.73
2018-10-11T17:19:12.743Z,3.50
2018-10-11T17:21:43.158Z,6.93
2018-10-11T17:24:12.331Z,3.30
2018-10-11T17:26:42.615Z,9.23
2018-10-11T17:29:13.179Z,4.57
2018-10-11T17:31:43.309Z,4.27
2018-10-11T17:34:13.182Z,4.10
2018-10-11T17:36:43.514Z,4.73
2018-10-11T17:39:13.790Z,12.20
2018-10-11T17:41:43.479Z,3.63
2018-10-11T17:44:13.484Z,5.40
2018-10-11T17:46:43.528Z,7.90
2018-10-11T17:49:13.292Z,4.30
2018-10-11T17:51:45.459Z,7.40
2018-10-11T17:54:15.034Z,5.73
2018-10-11T17:56:45.515Z,4.87
2018-10-11T17:59:17.986Z,4.67
2018-10-11T18:01:47.520Z,14.03
2018-10-11T18:04:17.903Z,16.07
2018-10-11T18:06:48.247Z,12.47
2018-10-11T18:09:17.358Z,6.90
2018-10-11T18:11:50.741Z,10.47
2018-10-11T18:14:22.977Z,6.33
2018-10-11T18:16:53.942Z,9.40
2018-10-11T18:19:23.147Z,11.50
2018-10-11T18:21:52.428Z,4.90
2018-10-11T18:24:22.302Z,8.30
2018-10-11T18:26:51.605Z,5.10
2018-10-11T18:29:21.522Z,5.50
2018-10-11T18:31:50.650Z,5.20
2018-10-11T18:34:20.302Z,3.77
2018-10-11T18:36:49.381Z,7.67
2018-10-11T18:39:18.479Z,9.27
2018-10-11T18:41:48.191Z,8.27
2018-10-11T18:44:17.387Z,4.13
2018-10-11T18:46:49.615Z,7.93
2018-10-11T18:52:05.461Z,3.83
2018-10-11T18:54:35.182Z,6.63
2018-10-11T18:57:05.299Z,3.87
2018-10-11T18:59:34.554Z,8.13
2018-10-11T19:02:05.526Z,5.17
2018-10-11T19:04:34.935Z,2.83
2018-10-11T19:07:04.505Z,3.87
2018-10-11T19:09:34.211Z,6.77
2018-10-11T19:12:03.362Z,8.87
2018-10-11T19:14:32.622Z,3.83
2018-10-11T19:17:03.929Z,6.80
2018-10-11T19:19:34.446Z,8.13
2018-10-11T19:22:03.791Z,6.20
2018-10-11T19:24:32.950Z,6.03
2018-10-11T19:27:02.185Z,4.00
2018-10-11T19:29:31.297Z,6.30
2018-10-11T19:32:00.461Z,5.73
2018-10-11T19:34:29.616Z,5.93
2018-10-11T19:36:58.754Z,9.20
2018-10-11T19:39:28.023Z,8.80
2018-10-11T19:41:57.914Z,10.80
2018-10-11T19:44:27.368Z,19.33
2018-10-11T19:46:56.497Z,5.67
2018-10-11T19:49:26.076Z,14.57
2018-10-11T19:51:55.790Z,9.17
2018-10-11T19:54:25.120Z,16.13
2018-10-11T19:56:55.730Z,10.77
2018-10-11T19:59:24.992Z,11.03
2018-10-11T20:01:54.224Z,13.83
2018-10-11T20:04:24.416Z,8.17
2018-10-11T20:06:53.570Z,13.80
2018-10-11T20:09:23.169Z,7.30
2018-10-11T20:11:56.436Z,6.40
2018-10-11T20:14:25.745Z,4.37
2018-10-11T20:16:55.627Z,7.20
2018-10-11T20:19:25.079Z,8.60
2018-10-11T20:21:54.470Z,6.10
2018-10-11T20:24:23.766Z,5.70
2018-10-11T20:26:52.965Z,3.73
2018-10-11T20:29:23.303Z,7.00
2018-10-11T20:31:52.469Z,7.43
2018-10-11T20:34:21.922Z,5.57
2018-10-11T20:36:51.191Z,5.23
2018-10-11T20:39:20.964Z,5.43
2018-10-11T20:41:51.212Z,5.47
2018-10-11T20:44:20.417Z,5.10
2018-10-11T20:46:50.204Z,8.37
2018-10-11T20:49:19.324Z,11.17
2018-10-11T20:51:49.482Z,5.77
2018-10-11T20:54:24.730Z,8.67
2018-10-11T20:56:53.988Z,4.27
2018-10-11T20:59:23.687Z,5.20
2018-10-11T21:01:53.033Z,8.90
2018-10-11T21:04:22.923Z,11.87
2018-10-11T21:06:52.649Z,7.03
2018-10-11T21:09:21.928Z,6.77
2018-10-11T21:11:51.207Z,3.80
2018-10-11T21:14:24.054Z,3.40
2018-10-11T21:16:53.166Z,5.80
2018-10-11T21:19:22.663Z,6.77
2018-10-11T21:21:52.635Z,7.90
2018-10-11T21:24:21.741Z,6.97
2018-10-11T21:26:51.677Z,9.17
2018-10-11T21:29:20.855Z,5.30
2018-10-11T21:31:52.005Z,6.13
2018-10-11T21:34:21.195Z,8.53
2018-10-11T21:36:52.484Z,8.17
2018-10-11T21:39:23.280Z,8.30
2018-10-11T21:41:53.808Z,5.87
2018-10-11T21:44:27.079Z,4.30
2018-10-11T21:46:57.697Z,5.50
2018-10-11T21:49:26.861Z,12.00
2018-10-11T21:51:57.691Z,7.60
2018-10-11T21:54:26.804Z,4.00
2018-10-11T21:56:56.464Z,9.87
2018-10-11T21:59:27.301Z,6.57
2018-10-11T22:01:58.179Z,7.23
2018-10-11T22:04:27.968Z,7.97
2018-10-11T22:07:02.130Z,11.27
2018-10-11T22:09:32.208Z,8.73
2018-10-11T22:12:01.377Z,10.00
2018-10-11T22:14:30.703Z,9.03
2018-10-11T22:16:59.959Z,7.50
2018-10-11T22:19:30.051Z,7.03
2018-10-11T22:21:59.227Z,6.07
2018-10-11T22:24:28.687Z,8.70
2018-10-11T22:26:57.851Z,7.27
2018-10-11T22:29:27.086Z,5.67
2018-10-11T22:32:14.168Z,14.37
2018-10-11T22:35:06.755Z,10.77
2018-10-11T22:37:55.336Z,5.17
2018-10-11T22:40:43.517Z,5.47
2018-10-11T22:43:27.299Z,10.77
2018-10-11T22:46:12.914Z,7.47
2018-10-11T22:49:03.651Z,7.23
2018-10-11T22:51:54.458Z,9.00
2018-10-11T22:54:43.011Z,9.17
2018-10-11T22:57:32.882Z,9.93
2018-10-11T23:00:02.952Z,7.80
2018-10-11T23:02:58.245Z,9.53
2018-10-11T23:14:00.678Z,6.17
2018-10-11T23:16:46.834Z,3.80
2018-10-11T23:19:17.215Z,4.60
2018-10-11T23:21:48.173Z,5.70
2018-10-11T23:24:18.567Z,5.53
2018-10-11T23:26:48.709Z,5.30
2018-10-11T23:29:17.885Z,6.83
2018-10-11T23:31:49.669Z,7.17
2018-10-11T23:34:21.284Z,6.47
2018-10-11T23:36:51.421Z,7.60
2018-10-11T23:39:21.508Z,4.20
2018-10-11T23:41:52.689Z,6.23
2018-10-11T23:44:22.843Z,3.90
2018-10-11T23:46:52.690Z,5.37
2018-10-11T23:49:21.856Z,7.00
2018-10-11T23:51:51.019Z,5.47
2018-10-11T23:54:21.308Z,7.67
2018-10-11T23:56:50.352Z,3.40
2018-10-11T23:59:19.980Z,6.67
